Latest Weather Observations for Holsworthy

IDN60901

Issued at 9:31 pm EDT Monday 27 March 2017 (issued every 10 minutes, with the page automatically refreshed every 10 minutes)

About weather observations | Map of Sydney area stations | Latest observations for Sydney area | Other Formats
Station Details ID: 066161 Name: HOLSWORTHY AERODROME AWS Lat: -33.99 Lon: 150.95 Height: 68.16 m
Data from the previous 72 hours. | See also: Recent months at Holsworthy
Date/Time
EDT
Temp
°C
App
Temp
°C
Dew
Point
°C
Rel
Hum
%
Delta-T
°C
Wind Press
QNH
hPa
Press
MSL
hPa
Rain since
9am
mm
Dir  Spd
km/h
Gust
km/h
Spd
kts
Gust
kts
27/09:30pm 22.4 24.1 19.4 83 1.9 E 9 13 5 7 1010.5 1010.3 0.0
27/09:00pm 22.6 24.3 19.4 82 2.0 ENE 9 13 5 7 1010.3 1010.1 0.0
27/08:30pm 23.0 24.5 19.8 82 2.1 ENE 11 17 6 9 1010.1 1009.9 0.0
27/08:00pm 23.4 24.6 19.8 80 2.3 ENE 13 20 7 11 1009.6 1009.4 0.0
27/07:30pm 23.6 24.8 19.9 80 2.4 ENE 13 19 7 10 1009.5 1009.3 0.0
27/07:00pm 24.2 25.4 19.9 77 2.8 ENE 13 20 7 11 1009.6 1009.4 0.0
27/06:30pm 25.2 26.1 20.0 73 3.4 ENE 15 20 8 11 1009.7 1009.5 0.0
27/06:00pm 26.1 27.1 20.2 70 3.9 ENE 15 20 8 11 1009.9 1009.7 0.0
27/05:30pm 26.9 27.9 20.3 67 4.3 ENE 15 22 8 12 1010.0 1009.8 0.0
27/05:00pm 27.1 27.6 20.0 65 4.6 ENE 17 28 9 15 1010.2 1010.0 0.0
27/04:30pm 27.6 27.9 19.7 62 5.2 ENE 17 28 9 15 1010.5 1010.3 0.0
27/04:00pm 28.1 28.2 19.1 58 5.8 NE 17 26 9 14 1010.8 1010.6 0.0
27/03:30pm 28.8 28.6 17.7 51 7.1 NE 15 20 8 11 1011.2 1011.0 0.0
27/03:00pm 28.6 27.6 16.5 48 7.6 NE 17 22 9 12 1011.9 1011.7 0.0
27/02:30pm 28.2 27.7 16.8 50 7.1 NNE 15 22 8 12 1012.3 1012.1 0.0
27/02:00pm 27.9 27.0 16.8 50 6.9 N 17 26 9 14 1013.0 1012.8 0.0
27/01:30pm 27.4 27.9 18.4 58 5.8 NNE 13 19 7 10 1013.7 1013.5 0.0
27/01:00pm 26.4 26.5 17.5 58 5.6 N 13 24 7 13 1014.5 1014.2 0.0
27/12:30pm 26.1 26.4 18.0 61 5.1 N 13 20 7 11 1015.1 1014.8 0.0
27/12:00pm 25.5 25.3 17.7 62 4.9 N 15 22 8 12 1015.5 1015.2 0.0
27/11:30am 24.6 24.1 17.8 66 4.3 N 17 20 9 11 1016.0 1015.7 0.0
27/11:00am 24.5 24.6 18.4 69 3.9 N 15 22 8 12 1016.3 1016.0 0.0
27/10:30am 23.5 23.4 17.9 71 3.5 N 15 24 8 13 1016.7 1016.4 0.0
27/10:00am 22.7 23.9 18.3 76 2.8 NNW 9 13 5 7 1017.0 1016.7 0.0
27/09:30am 21.4 22.5 18.0 81 2.1 NNW 9 13 5 7 1017.3 1017.0 0.0
27/09:00am 20.5 22.3 18.4 88 1.3 WSW 6 9 3 5 1017.4 1017.1 0.0
27/08:30am 19.7 21.4 18.5 93 0.7 WSW 7 9 4 5 1017.3 1017.0 0.0
27/08:00am 18.4 20.6 17.4 94 0.6 WSW 2 7 1 4 1017.0 1016.7 0.0
27/07:30am 17.7 20.1 16.9 95 0.5 CALM 0 0 0 0 1016.7 1016.4 0.0
27/07:00am 17.8 20.1 16.8 94 0.6 CALM 0 0 0 0 1016.4 1016.1 0.0
27/06:30am 18.1 20.5 17.0 93 0.7 CALM 0 0 0 0 1016.3 1016.0 0.0
27/06:00am 18.8 20.1 17.6 93 0.7 ENE 7 7 4 4 1016.1 1015.8 0.0
27/05:30am 19.0 20.4 17.8 93 0.7 NNE 7 9 4 5 1016.1 1015.8 0.0
27/05:00am 18.8 20.3 17.6 93 0.7 NE 6 7 3 4 1016.2 1015.9 0.0
27/04:30am 18.9 21.2 17.7 93 0.7 NNE 2 6 1 3 1016.3 1016.0 0.0
27/04:00am 19.2 21.6 18.0 93 0.7 NE 2 7 1 4 1016.3 1016.0 0.0
27/03:30am 19.3 22.1 18.0 92 0.8 CALM 0 0 0 0 1016.5 1016.2 0.0
27/03:00am 19.7 22.1 18.0 90 1.1 NE 2 6 1 3 1016.8 1016.5 0.0
27/02:30am 20.1 23.1 18.4 90 1.1 CALM 0 0 0 0 1017.0 1016.7 0.0
27/02:00am 20.6 23.8 18.9 90 1.1 CALM 0 0 0 0 1017.3 1017.0 0.0
27/01:30am 20.7 24.0 19.2 91 0.9 CALM 0 6 0 3 1017.6 1017.3 0.0
27/01:00am 20.6 24.0 19.3 92 0.8 CALM 0 0 0 0 1017.7 1017.4 0.0
27/12:30am 20.5 23.5 19.2 92 0.8 N 2 7 1 4 1017.9 1017.6 0.0
27/12:00am 20.1 23.3 18.9 93 0.8 CALM 0 0 0 0 1018.0 1017.7 0.0
 
Date/Time
EDT
Temp
°C
App
Temp
°C
Dew
Point
°C
Rel
Hum
%
Delta-T
°C
Wind Press
QNH
hPa
Press
MSL
hPa
Rain since
9am
mm
Dir  Spd
km/h
Gust
km/h
Spd
kts
Gust
kts
26/11:30pm 19.8 22.8 18.5 92 0.8 CALM 0 0 0 0 1018.1 1017.8 0.0
26/11:00pm 19.6 22.5 18.3 92 0.8 CALM 0 0 0 0 1018.2 1017.9 0.0
26/10:30pm 19.9 22.9 18.4 91 0.9 CALM 0 0 0 0 1018.1 1017.8 0.0
26/10:00pm 20.5 23.5 18.4 88 1.3 CALM 0 0 0 0 1018.0 1017.7 0.0
26/09:30pm 21.2 23.2 19.1 88 1.3 ENE 7 9 4 5 1017.6 1017.3 0.0
26/09:00pm 21.6 23.3 19.3 87 1.5 ENE 9 11 5 6 1017.3 1017.0 0.0
26/08:30pm 21.9 23.6 19.3 85 1.7 ENE 9 13 5 7 1016.8 1016.5 0.0
26/08:00pm 22.3 24.0 19.3 83 1.9 ENE 9 15 5 8 1016.5 1016.2 0.0
26/07:30pm 22.8 24.1 19.2 80 2.3 ENE 11 15 6 8 1016.0 1015.7 0.0
26/07:00pm 23.5 24.3 19.0 76 2.9 ENE 13 19 7 10 1015.7 1015.4 0.0
26/06:30pm 24.5 24.9 19.1 72 3.5 ENE 15 19 8 10 1015.3 1015.0 0.0
26/06:00pm 25.2 25.0 19.3 70 3.8 E 19 26 10 14 1014.8 1014.5 0.0
26/05:30pm 25.7 25.8 19.1 67 4.2 E 17 24 9 13 1014.7 1014.4 0.0
26/05:00pm 26.1 26.0 19.5 67 4.3 E 19 24 10 13 1014.5 1014.2 0.0
26/04:30pm 26.9 27.4 20.0 66 4.5 E 17 24 9 13 1014.2 1014.0 0.0
26/04:00pm 26.8 26.6 19.4 64 4.8 ENE 19 26 10 14 1014.2 1014.0 0.0
26/03:30pm 27.3 27.4 19.1 61 5.3 E 17 24 9 13 1014.4 1014.1 0.0
26/03:00pm 27.7 28.2 18.4 57 5.9 ENE 13 22 7 12 1014.4 1014.1 0.0
26/02:30pm 27.3 28.0 18.0 56 5.9 ENE 11 20 6 11 1014.6 1014.3 0.0
26/02:00pm 27.5 28.3 17.4 54 6.4 ENE 9 19 5 10 1014.9 1014.6 0.0
26/01:30pm 27.4 29.1 18.4 58 5.8 ENE 7 13 4 7 1015.2 1014.9 0.0
26/01:00pm 26.7 28.7 19.1 63 4.9 ENE 7 17 4 9 1015.6 1015.3 0.0
26/12:30pm 26.2 26.8 18.6 63 4.9 NNE 13 19 7 10 1016.1 1015.8 0.0
26/12:00pm 25.7 27.3 17.9 62 4.9 NNE 6 11 3 6 1016.3 1016.0 0.0
26/11:30am 24.7 26.3 17.9 66 4.3 SSE 6 7 3 4 1016.4 1016.1 0.0
26/11:00am 24.2 25.6 17.7 67 4.1 WNW 7 13 4 7 1016.7 1016.4 0.0
26/10:30am 23.2 24.3 17.9 72 3.3 WSW 9 11 5 6 1016.7 1016.4 0.0
26/10:00am 22.1 22.9 17.2 74 3.0 WSW 9 13 5 7 1016.5 1016.2 0.0
26/09:30am 20.7 21.8 17.1 80 2.2 WSW 7 13 4 7 1016.3 1016.0 0.0
26/09:00am 19.5 20.1 16.9 85 1.6 W 9 13 5 7 1016.1 1015.8 0.0
26/08:30am 18.4 19.5 17.1 92 0.8 WSW 7 11 4 6 1015.9 1015.6 0.0
26/08:00am 17.4 17.8 16.4 94 0.6 WSW 9 11 5 6 1015.7 1015.4 0.0
26/07:30am 17.0 17.4 16.4 96 0.4 SW 9 11 5 6 1015.2 1014.9 0.0
26/07:00am 17.0 17.1 16.4 96 0.4 SW 11 13 6 7 1015.0 1014.7 0.0
26/06:30am 17.2 17.3 16.6 96 0.4 SW 11 13 6 7 1014.7 1014.4 0.0
26/06:00am 17.2 17.9 16.2 94 0.6 WSW 7 9 4 5 1014.1 1013.9 0.0
26/05:30am 17.9 18.6 17.1 95 0.5 SW 9 11 5 6 1013.9 1013.7 0.0
26/05:00am 18.0 18.7 17.0 94 0.6 WSW 9 11 5 6 1013.8 1013.6 0.0
26/04:30am 18.3 20.2 16.8 91 0.9 WSW 2 7 1 4 1013.8 1013.6 0.0
26/04:00am 19.1 20.6 17.6 91 0.9 SW 6 7 3 4 1013.9 1013.7 0.0
26/03:30am 19.3 20.6 17.6 90 1.0 S 7 9 4 5 1013.9 1013.7 0.0
26/03:00am 19.0 20.4 17.7 92 0.8 SSW 7 9 4 5 1014.0 1013.8 0.0
26/02:30am 19.1 21.8 17.8 92 0.8 CALM 0 0 0 0 1014.4 1014.1 0.0
26/02:00am 19.2 21.9 17.7 91 0.9 CALM 0 0 0 0 1014.2 1014.0 0.0
26/01:30am 19.3 20.9 17.8 91 0.9 SSW 6 7 3 4 1014.5 1014.2 0.0
26/01:00am 18.7 20.1 17.4 92 0.8 SW 6 9 3 5 1014.9 1014.6 0.0
26/12:30am 18.8 21.2 17.1 90 1.0 CALM 0 0 0 0 1015.0 1014.7 0.0
26/12:00am 19.4 22.2 17.9 91 0.9 CALM 0 0 0 0 1015.3 1015.0 0.0
 
Date/Time
EDT
Temp
°C
App
Temp
°C
Dew
Point
°C
Rel
Hum
%
Delta-T
°C
Wind Press
QNH
hPa
Press
MSL
hPa
Rain since
9am
mm
Dir  Spd
km/h
Gust
km/h
Spd
kts
Gust
kts
25/11:30pm 19.3 21.9 17.6 90 1.0 CALM 0 0 0 0 1015.4 1015.1 0.0
25/11:00pm 19.2 21.7 17.2 88 1.2 CALM 0 0 0 0 1015.3 1015.0 0.0
25/10:30pm 19.5 22.0 17.3 87 1.3 CALM 0 0 0 0 1015.5 1015.2 0.0
25/10:00pm 20.1 22.8 17.7 86 1.5 CALM 0 0 0 0 1015.4 1015.1 0.0
25/09:30pm 20.6 23.3 17.8 84 1.7 CALM 0 0 0 0 1015.3 1015.0 0.0
25/09:00pm 20.9 23.7 17.9 83 1.9 CALM 0 4 0 2 1015.1 1014.8 0.0
25/08:30pm 21.1 22.6 17.7 81 2.1 ESE 6 7 3 4 1014.9 1014.6 0.0
25/08:00pm 21.3 22.8 17.5 79 2.3 ESE 6 9 3 5 1014.5 1014.2 0.0
25/07:30pm 21.3 22.8 17.5 79 2.3 E 6 9 3 5 1014.5 1014.2 0.0
25/07:00pm 21.4 22.7 17.6 79 2.3 E 7 9 4 5 1014.1 1013.9 0.0
25/06:30pm 21.5 23.0 17.7 79 2.4 ENE 6 9 3 5 1013.9 1013.7 0.0
25/06:00pm 22.0 23.4 17.8 77 2.6 E 7 11 4 6 1013.6 1013.4 0.0
25/05:30pm 22.1 23.6 17.7 76 2.7 NE 6 7 3 4 1013.5 1013.3 0.0
25/05:00pm 22.8 23.8 16.4 67 3.9 SE 6 7 3 4 1013.8 1013.6 0.0
25/04:30pm 22.9 25.3 16.9 69 3.7 CALM 0 0 0 0 1014.0 1013.8 0.0
25/04:00pm 22.4 23.3 16.2 68 3.8 ENE 6 7 3 4 1014.1 1013.9 0.0
25/03:30pm 23.1 23.8 16.2 65 4.2 ENE 7 13 4 7 1014.1 1013.9 0.0
25/03:00pm 23.2 23.4 15.8 63 4.5 NNW 9 15 5 8 1014.6 1014.3 0.0
25/02:30pm 23.4 23.3 16.0 63 4.5 NNW 11 20 6 11 1014.6 1014.3 0.0
25/02:00pm 24.4 24.9 16.6 61 4.8 N 9 17 5 9 1014.9 1014.6 0.0
25/01:30pm 24.4 23.9 15.9 59 5.2 NNW 13 20 7 11 1015.4 1015.1 0.0
25/01:00pm 23.2 22.7 15.0 60 4.9 N 11 15 6 8 1016.2 1015.9 0.0
25/12:30pm 23.0 22.6 15.1 61 4.7 N 11 17 6 9 1016.8 1016.5 0.0
25/12:00pm 22.9 23.1 15.7 64 4.3 N 9 13 5 7 1017.4 1017.1 0.0
25/11:30am 22.5 22.3 15.8 66 4.0 N 11 17 6 9 1017.5 1017.2 0.0
25/11:00am 22.5 22.2 15.4 64 4.2 N 11 19 6 10 1017.7 1017.4 0.0
25/10:30am 21.6 21.5 15.0 66 3.9 N 9 15 5 8 1017.9 1017.6 0.0
25/10:00am 21.3 22.1 15.8 71 3.3 WNW 6 13 3 7 1018.0 1017.7 0.0
25/09:30am 20.6 21.0 16.2 76 2.7 WSW 9 15 5 8 1017.9 1017.6 0.0
25/09:00am 19.2 20.1 16.2 83 1.8 W 6 11 3 6 1017.9 1017.6 0.0
25/08:30am 18.3 19.5 16.8 91 0.9 WSW 6 7 3 4 1017.8 1017.5 0.0
25/08:00am 17.8 19.4 17.0 95 0.5 W 4 7 2 4 1017.5 1017.2 0.0
25/07:30am 17.5 19.7 16.5 94 0.6 CALM 0 0 0 0 1017.3 1017.0 0.0
25/07:00am 17.7 19.9 16.6 93 0.7 CALM 0 0 0 0 1017.5 1017.2 0.0
25/06:30am 17.7 19.9 16.6 93 0.7 CALM 0 0 0 0 1017.3 1017.0 0.0
25/06:00am 17.8 18.8 16.8 94 0.6 WSW 7 7 4 4 1017.8 1017.5 0.0
25/05:30am 17.8 20.1 16.7 93 0.7 CALM 0 0 0 0 1017.8 1017.5 0.0
25/05:00am 17.9 19.8 16.6 92 0.8 SSW 2 6 1 3 1017.6 1017.3 0.0
25/04:30am 17.9 20.1 16.6 92 0.8 CALM 0 6 0 3 1017.5 1017.2 0.0
25/04:00am 17.8 18.4 16.7 93 0.7 SW 9 11 5 6 1017.8 1017.5 0.0
25/03:30am 17.6 18.5 16.5 93 0.7 WSW 7 9 4 5 1017.6 1017.3 0.0
25/03:00am 17.7 19.1 16.4 92 0.8 SW 4 7 2 4 1017.9 1017.6 0.0
25/02:30am 18.0 18.9 16.5 91 0.9 WSW 7 11 4 6 1018.3 1018.0 0.0
25/02:00am 18.1 18.5 16.4 90 1.0 SSW 9 13 5 7 1018.7 1018.4 0.0
25/01:30am 18.3 19.4 16.6 90 1.0 WSW 6 7 3 4 1018.7 1018.4 0.0
25/01:00am 18.5 19.5 16.8 90 1.0 WSW 7 9 4 5 1019.5 1019.2 0.0
25/12:30am 18.6 19.8 16.9 90 1.0 WSW 6 7 3 4 1019.7 1019.4 0.0
25/12:00am 18.7 21.1 17.0 90 1.0 CALM 0 0 0 0 1019.8 1019.5 0.0
 
Date/Time
EDT
Temp
°C
App
Temp
°C
Dew
Point
°C
Rel
Hum
%
Delta-T
°C
Wind Press
QNH
hPa
Press
MSL
hPa
Rain since
9am
mm
Dir  Spd
km/h
Gust
km/h
Spd
kts
Gust
kts
24/11:30pm 18.8 21.2 16.9 89 1.1 CALM 0 0 0 0 1020.1 1019.8 0.0
24/11:00pm 18.9 21.4 17.2 90 1.0 CALM 0 0 0 0 1020.4 1020.1 0.0
24/10:30pm 19.0 20.7 17.1 89 1.2 S 4 6 2 3 1020.5 1020.2 0.0
24/10:00pm 19.1 21.1 16.9 87 1.3 SSE 2 7 1 4 1020.2 1019.9 0.0

Latest Capital City Observations: Canberra | Sydney | Melbourne | Brisbane | Adelaide | Perth | Hobart | Darwin

Other Formats:

Comma delimited format used in spreadsheet applications
http://www.bom.gov.au/fwo/IDN60901/IDN60901.95761.axf

JavaScript Object Notation format (JSON) in row-major order
http://www.bom.gov.au/fwo/IDN60901/IDN60901.95761.json